Bomar Field Shelbyville Municipal Airport


Codes: KSYI/
Name: Bomar Field Shelbyville Municipal Airport
City: Shelbyville
Country: United States
Elevation: 801 ft.

Photos at Bomar Field Shelbyville Municipal Airport


   Photos courtesy of SpottingLog. You can add your own sightings and photos by signing up for a free trial today.



No photos found.

Weather at Bomar Field Shelbyville Municipal Airport


Time (UTC)DescriptionTempratureWindCloud coverageVisibilityPressureHumidity
16-Jun-2024 12:00Clear Sky22°C4 mph, SE1%10000m1016hPa90%
16-Jun-2024 15:00Scattered Clouds26°C9 mph, S43%10000m1016hPa75%
16-Jun-2024 18:00Light Rain31°C7 mph, S35%10000m1017hPa63%
16-Jun-2024 21:00Clear Sky31°C11 mph, S0%10000m1016hPa55%
17-Jun-2024 00:00Few Clouds29°C0 mph, S15%10000m1015hPa71%
17-Jun-2024 03:00Light Rain22°C7 mph, E84%10000m1017hPa95%
17-Jun-2024 06:00Overcast Clouds22°C7 mph, SE92%10000m1017hPa89%
17-Jun-2024 09:00Broken Clouds21°C7 mph, SE71%10000m1017hPa87%
17-Jun-2024 12:00Overcast Clouds22°C4 mph, SE85%10000m1019hPa85%
17-Jun-2024 15:00Overcast Clouds28°C11 mph, S90%10000m1019hPa64%
17-Jun-2024 18:00Broken Clouds31°C11 mph, S78%10000m1018hPa54%
17-Jun-2024 21:00Broken Clouds32°C9 mph, SW70%10000m1016hPa52%
18-Jun-2024 00:00Light Rain27°C2 mph, W82%10000m1016hPa78%
18-Jun-2024 03:00Light Rain23°C4 mph, SE100%10000m1018hPa83%
18-Jun-2024 06:00Overcast Clouds22°C2 mph, SE100%10000m1018hPa84%
18-Jun-2024 09:00Overcast Clouds22°C4 mph, SE100%10000m1018hPa83%
18-Jun-2024 12:00Overcast Clouds22°C7 mph, SE96%10000m1020hPa84%
18-Jun-2024 15:00Overcast Clouds26°C11 mph, SE100%10000m1020hPa61%
18-Jun-2024 18:00Overcast Clouds28°C11 mph, SE100%10000m1019hPa53%
18-Jun-2024 21:00Overcast Clouds28°C7 mph, S100%10000m1019hPa56%
19-Jun-2024 00:00Overcast Clouds26°C4 mph, E100%10000m1019hPa67%
19-Jun-2024 03:00Overcast Clouds23°C7 mph, E100%10000m1020hPa61%
19-Jun-2024 06:00Overcast Clouds22°C7 mph, SE100%10000m1019hPa57%
19-Jun-2024 09:00Overcast Clouds22°C7 mph, SE100%10000m1020hPa57%
19-Jun-2024 12:00Overcast Clouds22°C9 mph, SE100%10000m1022hPa74%
19-Jun-2024 15:00Overcast Clouds25°C11 mph, SE100%10000m1024hPa62%
19-Jun-2024 18:00Overcast Clouds28°C9 mph, SE100%10000m1023hPa51%
19-Jun-2024 21:00Overcast Clouds30°C4 mph, SE98%10000m1021hPa43%
20-Jun-2024 00:00Overcast Clouds27°C2 mph, NE99%10000m1021hPa70%
20-Jun-2024 03:00Overcast Clouds23°C4 mph, E100%10000m1022hPa81%
20-Jun-2024 06:00Broken Clouds21°C4 mph, E78%10000m1022hPa73%
20-Jun-2024 09:00Overcast Clouds20°C4 mph, E100%10000m1023hPa67%
20-Jun-2024 12:00Overcast Clouds21°C4 mph, SE100%10000m1024hPa74%
20-Jun-2024 15:00Overcast Clouds26°C7 mph, S100%10000m1025hPa60%
20-Jun-2024 18:00Overcast Clouds30°C4 mph, SE99%10000m1023hPa49%
20-Jun-2024 21:00Overcast Clouds31°C4 mph, NE93%10000m1021hPa47%
21-Jun-2024 00:00Overcast Clouds27°C4 mph, NE98%10000m1021hPa72%
21-Jun-2024 03:00Scattered Clouds23°C4 mph, E42%10000m1022hPa82%
21-Jun-2024 06:00Broken Clouds21°C4 mph, SE65%10000m1022hPa75%
21-Jun-2024 09:00Few Clouds20°C2 mph, SE20%10000m1022hPa68%